Time;durP1;ratioP1;P1;durP2;ratioP2;P2;SDS_P1;SDS_P2;PMS_P1;PMS_P2;Temp;Humidity;BMP_temperature;BMP_pressure;BME280_temperature;BME280_humidity;BME280_pressure;Samples;Min_cycle;Max_cycle;Signal;HPM_P1;HPM_P2
2021/03/22 05:43:22;;;;;;;;;;;;;;;0.04;78.70;99378.14;1727198;82;20213;-38
2021/03/22 05:45:59;;;;;;;;;;;;;;;0.16;78.61;99364.73;1729069;82;20153;-39
2021/03/22 05:48:30;;;;;;;;;;;;;;;0.26;78.22;99364.16;1728321;82;20190;-40
2021/03/22 05:51:24;;;;;;;;;;;;;;;0.34;78.04;99363.93;1732212;82;20162;-39
2021/03/22 05:54:14;;;;;;;;;;;;;;;0.44;77.63;99363.77;1731023;81;20174;-35
2021/03/22 05:57:06;;;;;;;;;;;;;;;0.53;77.19;99358.86;1729299;81;20257;-40
2021/03/22 05:59:48;;;;;;;;;;;;;;;0.61;76.81;99365.48;1681723;83;20171;-35
2021/03/22 06:02:34;;;;;;;;;;;;;;;0.71;76.57;99359.73;1670831;85;20971;-35
2021/03/22 06:05:40;;;;;;;;;;;;;;;0.90;76.03;99367.47;1806259;77;20162;-35
2021/03/22 06:08:37;;;;;;;;;;;;;;;0.96;75.97;99371.06;1818020;77;20526;-35
2021/03/22 06:11:28;;;;;;;;;;;;;;;1.12;76.05;99371.43;1820490;77;20160;-35
2021/03/22 06:14:04;;;;;;;;;;;;;;;1.30;75.64;99375.28;1740232;80;20568;-36
2021/03/22 06:16:35;;;;;;;;;;;;;;;1.46;75.94;99375.21;1737318;81;20440;-39
2021/03/22 06:19:21;;;;;;;;;;;;;;;1.60;74.73;99373.78;1740512;80;20298;-37
2021/03/22 06:22:06;;;;;;;;;;;;;;;1.66;72.29;99375.63;1697548;82;20571;-37
2021/03/22 06:25:14;;;;;;;;;;;;;;;1.70;72.24;99381.73;1714027;81;20795;-36
2021/03/22 06:28:54;;;;;;;;;;;;;;;1.73;71.81;99377.48;1709521;81;20197;-40
2021/03/22 06:36:13;;;;;;;;;;;;;;;1.81;71.66;99377.23;1687403;84;20181;-35
2021/03/22 06:39:17;;;;;;;;;;;;;;;1.92;71.97;99377.46;1686399;84;20161;-35
2021/03/22 06:42:36;;;;;;;;;;;;;;;2.02;71.63;99369.46;1685223;84;20229;-35
2021/03/22 06:46:19;;;;;;;;;;;;;;;2.13;71.58;99375.28;1686378;84;20206;-34
2021/03/22 06:49:02;;;;;;;;;;;;;;;2.25;71.23;99368.61;1708731;82;20595;-35
2021/03/22 06:51:31;;;;;;;;;;;;;;;2.34;70.65;99368.80;1759061;78;20465;-35
2021/03/22 06:54:00;;;;;;;;;;;;;;;2.42;70.91;99363.33;1746906;80;20166;-34
2021/03/22 06:56:36;;;;;;;;;;;;;;;2.53;70.46;99366.97;1742955;80;20200;-34
2021/03/22 06:59:19;;;;;;;;;;;;;;;2.62;70.05;99364.56;1750778;81;20268;-35
2021/03/22 07:01:49;;;;;;;;;;;;;;;2.68;69.33;99358.63;1782052;78;20865;-44
2021/03/22 07:04:29;;;;;;;;;;;;;;;2.71;69.19;99362.97;1758149;80;20165;-36
2021/03/22 07:07:17;;;;;;;;;;;;;;;2.70;68.93;99361.23;1762720;79;20590;-41
2021/03/22 07:10:00;;;;;;;;;;;;;;;2.73;68.90;99361.30;1714951;81;20197;-35
2021/03/22 07:12:34;;;;;;;;;;;;;;;2.83;69.44;99369.63;1739844;80;20162;-36
2021/03/22 07:15:24;;;;;;;;;;;;;;;2.91;68.20;99362.88;1741053;80;20170;-36
2021/03/22 07:18:17;;;;;;;;;;;;;;;2.98;68.35;99360.83;1736944;80;20205;-40
2021/03/22 07:20:59;;;;;;;;;;;;;;;3.06;68.06;99368.69;1773131;79;20581;-39
2021/03/22 07:23:36;;;;;;;;;;;;;;;3.07;67.34;99360.95;1728536;80;20555;-40
2021/03/22 07:27:01;;;;;;;;;;;;;;;3.11;68.20;99360.16;1743018;80;20216;-39
2021/03/22 07:30:24;;;;;;;;;;;;;;;3.18;67.11;99361.98;1762766;80;20168;-40
2021/03/22 07:33:31;;;;;;;;;;;;;;;3.20;67.05;99356.44;1749934;80;20571;-40
2021/03/22 07:36:10;;;;;;;;;;;;;;;3.30;67.12;99352.67;1747385;80;20192;-40
2021/03/22 07:39:24;;;;;;;;;;;;;;;3.35;66.78;99340.68;1745090;80;20477;-35
2021/03/22 07:42:10;;;;;;;;;;;;;;;3.45;67.14;99343.42;1735879;80;20174;-34
2021/03/22 07:44:58;;;;;;;;;;;;;;;3.60;66.07;99342.77;1745880;80;20195;-34
2021/03/22 07:47:53;;;;;;;;;;;;;;;3.69;66.48;99340.27;1735733;81;20187;-34
2021/03/22 07:50:43;;;;;;;;;;;;;;;3.77;66.22;99330.04;1766336;79;20483;-35
2021/03/22 07:53:18;;;;;;;;;;;;;;;3.89;65.97;99328.02;1744495;80;20540;-34
2021/03/22 07:55:53;;;;;;;;;;;;;;;3.98;64.83;99330.27;1741989;80;20206;-35
2021/03/22 07:58:44;;;;;;;;;;;;;;;3.98;65.53;99325.09;1750993;80;20173;-34
2021/03/22 08:01:37;;;;;;;;;;;;;;;3.97;65.35;99328.96;1744183;80;20215;-35
2021/03/22 08:04:41;;;;;;;;;;;;;;;3.95;65.46;99328.95;1740890;80;20761;-34
2021/03/22 08:07:22;;;;;;;;;;;;;;;4.04;65.79;99323.42;1737808;81;20196;-41
2021/03/22 08:10:08;;;;;;;;;;;;;;;4.18;65.69;99318.84;1710355;81;20198;-35
2021/03/22 08:12:55;;;;;;;;;;;;;;;4.26;65.43;99314.59;1714658;83;20469;-34
2021/03/22 08:15:48;;;;;;;;;;;;;;;4.35;65.56;99321.60;1702758;83;20236;-34
2021/03/22 08:18:33;;;;;;;;;;;;;;;4.49;64.63;99317.83;1692399;84;20637;-39
2021/03/22 08:22:03;;;;;;;;;;;;;;;4.57;64.66;99308.82;1689452;84;20282;-35
2021/03/22 08:25:52;;;;;;;;;;;;;;;4.67;64.75;99310.21;1691880;84;20596;-35
2021/03/22 08:33:24;;;;;;;;;;;;;;;5.30;63.36;99298.54;1821391;76;20134;-39
2021/03/22 08:36:43;;;;;;;;;;;;;;;5.32;62.59;99295.94;1777381;79;20535;-35
2021/03/22 08:39:49;;;;;;;;;;;;;;;5.28;62.17;99290.33;1791932;78;20304;-34
2021/03/22 08:42:23;;;;;;;;;;;;;;;5.22;61.96;99288.56;1782229;78;20185;-34
2021/03/22 08:45:04;;;;;;;;;;;;;;;5.22;61.64;99297.64;1766786;79;20221;-35
2021/03/22 08:47:41;;;;;;;;;;;;;;;5.20;60.95;99291.99;1764806;79;20276;-40
2021/03/22 08:50:34;;;;;;;;;;;;;;;5.20;61.10;99286.80;1767328;79;20478;-35
2021/03/22 08:53:16;;;;;;;;;;;;;;;5.26;59.88;99287.70;1769766;79;20182;-45
2021/03/22 08:55:54;;;;;;;;;;;;;;;5.34;59.33;99282.14;1765374;79;20184;-35
2021/03/22 08:58:30;;;;;;;;;;;;;;;5.52;59.06;99275.30;1770242;79;20181;-41
2021/03/22 09:01:18;;;;;;;;;;;;;;;5.67;58.01;99281.83;1769784;79;20313;-41
2021/03/22 09:03:50;;;;;;;;;;;;;;;5.79;58.87;99284.46;1768258;79;20541;-35
2021/03/22 09:06:25;;;;;;;;;;;;;;;5.92;57.03;99284.56;1768418;79;20543;-34
2021/03/22 09:08:57;;;;;;;;;;;;;;;5.99;56.43;99273.31;1748766;80;20222;-34
2021/03/22 09:11:31;;;;;;;;;;;;;;;6.03;56.24;99287.62;1765336;79;20198;-35
2021/03/22 09:14:15;;;;;;;;;;;;;;;6.06;56.38;99288.04;1763609;79;20297;-34
2021/03/22 09:16:48;;;;;;;;;;;;;;;6.17;55.43;99276.38;1763499;79;20503;-35
2021/03/22 09:19:34;;;;;;;;;;;;;;;6.24;53.68;99271.19;1766191;79;20504;-35
2021/03/22 09:23:05;;;;;;;;;;;;;;;6.28;55.72;99264.27;1762425;79;20258;-35
2021/03/22 09:26:53;;;;;;;;;;;;;;;6.31;54.80;99252.14;1768603;79;20170;-34
2021/03/22 09:30:04;;;;;;;;;;;;;;;6.22;54.89;99257.34;1768837;79;20163;-34
2021/03/22 09:32:39;;;;;;;;;;;;;;;6.23;53.99;99252.58;1771369;79;20213;-35
2021/03/22 09:35:18;;;;;;;;;;;;;;;6.25;54.44;99251.27;1764199;79;20416;-34
2021/03/22 09:37:55;;;;;;;;;;;;;;;6.32;55.14;99252.59;1764400;79;20317;-40
2021/03/22 09:40:32;;;;;;;;;;;;;;;6.34;55.92;99259.08;1765577;79;20206;-41
2021/03/22 09:43:11;;;;;;;;;;;;;;;6.31;56.62;99256.03;1770291;80;20977;-34
2021/03/22 09:45:55;;;;;;;;;;;;;;;6.30;56.07;99256.04;1744093;79;20172;-34
2021/03/22 09:48:30;;;;;;;;;;;;;;;6.38;55.43;99248.70;1766550;79;20554;-39
2021/03/22 09:51:06;;;;;;;;;;;;;;;6.51;53.44;99253.89;1776513;79;20222;-39
2021/03/22 09:53:56;;;;;;;;;;;;;;;6.46;52.87;99254.32;1770897;79;20182;-41
2021/03/22 09:56:56;;;;;;;;;;;;;;;6.46;53.94;99258.22;1762441;79;20182;-35
2021/03/22 10:00:31;;;;;;;;;;;;;;;6.48;52.94;99243.48;1767248;79;20185;-39
2021/03/22 10:03:47;;;;;;;;;;;;;;;6.61;54.95;99254.30;1760729;79;20296;-35
2021/03/22 10:06:32;;;;;;;;;;;;;;;6.82;52.12;99243.89;1719021;80;20201;-39
2021/03/22 10:09:09;;;;;;;;;;;;;;;6.91;50.64;99243.88;1758573;79;20516;-33
2021/03/22 10:12:34;;;;;;;;;;;;;;;6.98;50.84;99235.62;1762176;79;20238;-35
2021/03/22 10:15:45;;;;;;;;;;;;;;;7.19;53.21;99234.72;1744368;79;20192;-35
2021/03/22 10:19:02;;;;;;;;;;;;;;;7.37;51.43;99235.95;1768147;79;20177;-35
2021/03/22 10:25:47;;;;;;;;;;;;;;;7.04;51.04;99234.75;1751987;79;20550;-39
2021/03/22 10:28:41;;;;;;;;;;;;;;;6.99;51.19;99233.45;1767182;79;20175;-39
2021/03/22 10:35:14;;;;;;;;;;;;;;;7.00;50.09;99229.98;1768835;79;20238;-41
2021/03/22 10:38:31;;;;;;;;;;;;;;;6.83;51.26;99224.81;1702280;82;20492;-41
2021/03/22 10:41:03;;;;;;;;;;;;;;;6.87;49.89;99229.59;1678977;83;20253;-40
2021/03/22 10:43:33;;;;;;;;;;;;;;;7.26;50.71;99224.72;1688253;83;20248;-41
2021/03/22 10:46:07;;;;;;;;;;;;;;;7.71;48.08;99210.63;1691660;82;20184;-36
2021/03/22 10:48:41;;;;;;;;;;;;;;;7.95;48.69;99202.23;1785655;78;20489;-41
2021/03/22 10:51:18;;;;;;;;;;;;;;;7.93;48.77;99206.56;1753996;80;20463;-39
2021/03/22 10:53:56;;;;;;;;;;;;;;;7.88;48.23;99200.08;1733155;80;20169;-41
2021/03/22 10:56:34;;;;;;;;;;;;;;;7.79;49.40;99205.37;1752462;80;20555;-41
2021/03/22 10:59:04;;;;;;;;;;;;;;;7.57;48.23;99199.84;1756804;80;20214;-40
2021/03/22 11:01:36;;;;;;;;;;;;;;;7.49;47.31;99205.55;1759050;80;20195;-41
2021/03/22 11:04:10;;;;;;;;;;;;;;;7.44;47.44;99208.16;1756548;80;20187;-35
2021/03/22 11:06:41;;;;;;;;;;;;;;;7.41;47.57;99200.35;1756956;80;20274;-35
2021/03/22 11:09:15;;;;;;;;;;;;;;;7.40;48.06;99199.48;1760288;80;20273;-35
2021/03/22 11:11:43;;;;;;;;;;;;;;;7.43;48.63;99192.13;1752605;80;20178;-39
2021/03/22 11:14:14;;;;;;;;;;;;;;;7.89;47.97;99197.93;1754909;80;20785;-40
2021/03/22 11:16:43;;;;;;;;;;;;;;;8.44;47.60;99184.49;1727886;80;20242;-35
2021/03/22 11:19:26;;;;;;;;;;;;;;;9.16;45.77;99194.20;1734861;80;20190;-39
2021/03/22 11:21:57;;;;;;;;;;;;;;;9.42;44.54;99189.09;1756055;80;20171;-40
2021/03/22 11:24:41;;;;;;;;;;;;;;;9.49;43.29;99177.67;1761540;80;20470;-36
2021/03/22 11:27:11;;;;;;;;;;;;;;;9.48;42.58;99183.78;1760366;80;20185;-35
2021/03/22 11:29:51;;;;;;;;;;;;;;;9.38;42.93;99190.86;1755737;80;20438;-41
2021/03/22 11:32:38;;;;;;;;;;;;;;;9.49;41.98;99177.67;1758104;80;20533;-40
2021/03/22 11:35:27;;;;;;;;;;;;;;;9.57;42.07;99162.34;1753201;80;20151;-35
2021/03/22 11:38:02;;;;;;;;;;;;;;;9.45;41.98;99185.11;1755890;80;20168;-39
2021/03/22 11:40:32;;;;;;;;;;;;;;;9.28;42.54;99164.48;1752283;80;20185;-35
2021/03/22 11:43:05;;;;;;;;;;;;;;;9.11;42.62;99165.13;1759491;80;20191;-39
2021/03/22 11:45:38;;;;;;;;;;;;;;;8.92;43.89;99168.36;1758937;80;20167;-34
2021/03/22 11:48:22;;;;;;;;;;;;;;;8.95;44.25;99165.73;1753016;80;20565;-35
2021/03/22 11:51:11;;;;;;;;;;;;;;;8.99;44.14;99167.44;1751476;80;20443;-35
2021/03/22 11:54:05;;;;;;;;;;;;;;;8.93;44.59;99171.39;1751926;80;20409;-34
2021/03/22 11:56:39;;;;;;;;;;;;;;;8.77;44.76;99166.80;1753843;80;20273;-36
2021/03/22 11:59:18;;;;;;;;;;;;;;;8.59;45.46;99165.69;1752542;80;20329;-34
2021/03/22 12:01:41;;;;;;;;;;;;;;;8.55;45.91;99161.38;1750429;80;20255;-41
2021/03/22 12:04:13;;;;;;;;;;;;;;;8.47;45.96;99161.02;1752710;80;20179;-41
2021/03/22 12:07:02;;;;;;;;;;;;;;;8.34;46.29;99157.19;1741499;80;20591;-36
2021/03/22 12:09:31;;;;;;;;;;;;;;;8.16;45.65;99156.91;1719992;81;20187;-36
2021/03/22 12:12:01;;;;;;;;;;;;;;;7.99;46.54;99161.80;1743703;81;20183;-40
2021/03/22 12:14:56;;;;;;;;;;;;;;;7.87;46.78;99155.83;1748173;80;20760;-39
2021/03/22 12:18:05;;;;;;;;;;;;;;;7.72;47.34;99156.81;1749860;80;20178;-34
2021/03/22 12:21:03;;;;;;;;;;;;;;;7.55;48.48;99150.85;1749145;80;20684;-37
2021/03/22 12:23:31;;;;;;;;;;;;;;;7.47;48.69;99153.47;1751877;80;20160;-36
2021/03/22 12:26:00;;;;;;;;;;;;;;;7.52;49.80;99156.05;1750152;80;20163;-36
2021/03/22 12:32:15;;;;;;;;;;;;;;;7.59;47.79;99148.19;1751255;80;20192;-39
2021/03/22 12:34:49;;;;;;;;;;;;;;;7.53;48.29;99144.77;1752108;80;20564;-39
2021/03/22 12:37:28;;;;;;;;;;;;;;;7.38;48.64;99142.70;1755282;80;20163;-35
2021/03/22 12:39:58;;;;;;;;;;;;;;;7.27;48.76;99136.68;1745778;80;20124;-39
2021/03/22 12:42:29;;;;;;;;;;;;;;;7.20;49.40;99137.59;1750036;80;20198;-40
2021/03/22 12:44:57;;;;;;;;;;;;;;;7.14;50.15;99139.78;1750782;80;20529;-36
2021/03/22 12:47:27;;;;;;;;;;;;;;;7.25;50.73;99144.05;1750508;80;20170;-35
2021/03/22 12:49:56;;;;;;;;;;;;;;;7.39;50.46;99135.75;1750983;80;20192;-35
2021/03/22 12:52:23;;;;;;;;;;;;;;;7.53;49.57;99138.27;1750788;81;20728;-36
2021/03/22 12:54:54;;;;;;;;;;;;;;;7.67;50.17;99127.34;1736792;80;20171;-36
2021/03/22 12:57:24;;;;;;;;;;;;;;;7.77;50.91;99132.92;1745820;81;20446;-41
2021/03/22 12:59:53;;;;;;;;;;;;;;;7.64;50.06;99132.11;1741796;80;20168;-40
2021/03/22 13:02:23;;;;;;;;;;;;;;;7.45;50.39;99129.20;1741999;80;20218;-39
2021/03/22 13:04:51;;;;;;;;;;;;;;;7.30;50.55;99128.84;1741009;80;20169;-35
2021/03/22 13:07:21;;;;;;;;;;;;;;;7.20;52.49;99136.29;1734533;81;20160;-35
2021/03/22 13:09:49;;;;;;;;;;;;;;;7.07;53.58;99134.16;1740890;80;20753;-40
2021/03/22 13:12:23;;;;;;;;;;;;;;;6.93;53.73;99134.66;1741269;80;20181;-41
2021/03/22 13:14:51;;;;;;;;;;;;;;;6.80;54.52;99127.78;1737499;82;20197;-35
2021/03/22 13:17:19;;;;;;;;;;;;;;;6.68;54.97;99133.88;1743462;80;20160;-35
2021/03/22 13:19:47;;;;;;;;;;;;;;;6.60;55.74;99131.72;1744253;80;20299;-35
2021/03/22 13:22:19;;;;;;;;;;;;;;;6.54;56.07;99117.44;1752359;80;20769;-35
2021/03/22 13:24:52;;;;;;;;;;;;;;;6.78;56.42;99123.00;1732659;80;20752;-40
2021/03/22 13:27:20;;;;;;;;;;;;;;;7.01;55.42;99126.38;1752625;80;20164;-35
2021/03/22 13:29:47;;;;;;;;;;;;;;;6.90;54.57;99121.69;1755237;80;20162;-36
2021/03/22 13:32:16;;;;;;;;;;;;;;;6.65;55.63;99116.98;1737709;80;20183;-36
2021/03/22 13:34:43;;;;;;;;;;;;;;;6.44;56.46;99123.12;1731383;80;20194;-35
2021/03/22 13:37:19;;;;;;;;;;;;;;;6.27;57.33;99120.98;1736210;80;20148;-40
2021/03/22 13:39:48;;;;;;;;;;;;;;;6.17;57.74;99120.55;1744041;81;20196;-40
2021/03/22 13:42:15;;;;;;;;;;;;;;;6.10;58.59;99119.70;1735698;80;20189;-36
2021/03/22 13:44:42;;;;;;;;;;;;;;;6.07;58.52;99117.08;1747904;80;20426;-36
2021/03/22 13:47:10;;;;;;;;;;;;;;;6.04;58.19;99114.50;1716602;80;20581;-36
2021/03/22 13:49:39;;;;;;;;;;;;;;;6.01;58.35;99118.38;1733217;80;20494;-41
2021/03/22 13:52:17;;;;;;;;;;;;;;;5.97;58.55;99111.05;1738843;82;20168;-38
2021/03/22 13:54:45;;;;;;;;;;;;;;;5.98;58.74;99114.51;1744790;80;20162;-40
2021/03/22 13:57:13;;;;;;;;;;;;;;;5.99;58.94;99110.61;1741677;81;20151;-40
2021/03/22 13:59:42;;;;;;;;;;;;;;;6.02;58.74;99109.72;1727549;82;20154;-38
2021/03/22 14:02:12;;;;;;;;;;;;;;;5.99;58.67;99108.02;1748043;80;20164;-40
2021/03/22 14:04:44;;;;;;;;;;;;;;;5.99;58.60;99111.05;1785440;80;20175;-40
2021/03/22 14:07:12;;;;;;;;;;;;;;;5.96;59.08;99108.00;1728389;82;20258;-40
2021/03/22 14:09:40;;;;;;;;;;;;;;;5.97;58.87;99103.27;1735982;80;20174;-35
2021/03/22 14:12:09;;;;;;;;;;;;;;;5.98;59.54;99112.78;1758034;80;20152;-36
2021/03/22 14:14:38;;;;;;;;;;;;;;;5.97;59.27;99107.16;1684983;84;20558;-40
2021/03/22 14:17:07;;;;;;;;;;;;;;;5.96;59.34;99129.20;1691541;83;20177;-35
2021/03/22 14:19:36;;;;;;;;;;;;;;;5.92;58.60;99150.86;1706252;83;20188;-35
2021/03/22 14:22:07;;;;;;;;;;;;;;;5.83;56.07;99143.45;1680568;85;20471;-40
2021/03/22 14:24:35;;;;;;;;;;;;;;;5.68;56.41;99139.52;1690509;83;20180;-40
2021/03/22 14:27:03;;;;;;;;;;;;;;;5.54;56.94;99137.35;1707385;83;20163;-40
2021/03/22 14:29:31;;;;;;;;;;;;;;;5.38;58.74;99135.58;1702969;83;20191;-40
2021/03/22 14:31:59;;;;;;;;;;;;;;;5.18;59.92;99132.95;1673484;86;20138;-40
2021/03/22 14:34:27;;;;;;;;;;;;;;;5.05;60.40;99129.45;1694880;83;20152;-35
2021/03/22 14:36:56;;;;;;;;;;;;;;;5.04;61.66;99125.10;1705654;83;20223;-36
2021/03/22 14:39:24;;;;;;;;;;;;;;;5.13;62.30;99126.88;1726813;83;20545;-39
2021/03/22 14:41:51;;;;;;;;;;;;;;;5.19;62.67;99127.76;1708174;83;20156;-36
2021/03/22 14:44:20;;;;;;;;;;;;;;;5.27;63.40;99127.77;1716903;83;20294;-38
2021/03/22 14:46:48;;;;;;;;;;;;;;;5.32;63.28;99129.95;1713076;84;20144;-35
2021/03/22 14:49:17;;;;;;;;;;;;;;;5.33;62.78;99129.08;1711230;83;20439;-34
2021/03/22 14:51:45;;;;;;;;;;;;;;;5.34;62.02;99122.63;1674806;84;20227;-40
2021/03/22 14:54:13;;;;;;;;;;;;;;;5.32;61.06;99118.27;1685755;83;20164;-35
2021/03/22 14:56:41;;;;;;;;;;;;;;;5.29;61.47;99121.74;1713856;84;20314;-40
2021/03/22 14:59:11;;;;;;;;;;;;;;;5.27;62.07;99114.80;1710019;83;20187;-40
2021/03/22 15:01:39;;;;;;;;;;;;;;;5.26;62.50;99118.27;1702549;83;20159;-35
2021/03/22 15:04:08;;;;;;;;;;;;;;;5.22;62.88;99123.03;1702231;83;20160;-35
2021/03/22 15:06:36;;;;;;;;;;;;;;;5.20;62.91;99128.62;1700773;83;20175;-35
2021/03/22 15:09:05;;;;;;;;;;;;;;;5.13;63.64;99122.55;1707247;84;20436;-40
2021/03/22 15:11:33;;;;;;;;;;;;;;;5.05;64.30;99125.13;1704980;83;20163;-35
2021/03/22 15:14:03;;;;;;;;;;;;;;;5.00;64.82;99132.45;1707395;84;20523;-40
2021/03/22 15:16:31;;;;;;;;;;;;;;;4.93;65.04;99128.08;1680462;83;20949;-40
2021/03/22 15:18:59;;;;;;;;;;;;;;;4.87;65.45;99132.84;1707528;84;20520;-39
2021/03/22 15:21:26;;;;;;;;;;;;;;;4.80;65.74;99137.09;1717363;83;20467;-39
2021/03/22 15:23:54;;;;;;;;;;;;;;;4.76;66.21;99139.27;1731092;83;20167;-40
2021/03/22 15:26:23;;;;;;;;;;;;;;;4.73;66.38;99137.94;1712664;83;20494;-41
2021/03/22 15:28:51;;;;;;;;;;;;;;;4.69;66.16;99149.56;1719620;83;20163;-36
2021/03/22 15:31:19;;;;;;;;;;;;;;;4.67;66.32;99147.41;1722688;83;20161;-35
2021/03/22 15:33:47;;;;;;;;;;;;;;;4.66;66.50;99147.84;1720581;83;20136;-36
2021/03/22 15:36:20;;;;;;;;;;;;;;;4.65;66.53;99148.70;1715836;83;20145;-40
2021/03/22 15:38:48;;;;;;;;;;;;;;;4.65;66.56;99147.84;1707119;83;20151;-40
2021/03/22 15:41:18;;;;;;;;;;;;;;;4.64;66.47;99145.68;1706822;84;20160;-36
2021/03/22 15:43:46;;;;;;;;;;;;;;;4.62;66.43;99147.37;1712429;83;20176;-36
2021/03/22 15:46:14;;;;;;;;;;;;;;;4.60;66.60;99146.94;1711014;84;20168;-35
2021/03/22 15:48:43;;;;;;;;;;;;;;;4.61;66.84;99149.97;1705089;83;20266;-38
2021/03/22 15:51:11;;;;;;;;;;;;;;;4.64;66.89;99149.56;1670143;84;20204;-35
2021/03/22 15:53:39;;;;;;;;;;;;;;;4.67;66.68;99139.20;1679680;83;20174;-34
2021/03/22 15:56:07;;;;;;;;;;;;;;;4.73;67.37;99141.83;1697079;84;20169;-40
2021/03/22 15:58:35;;;;;;;;;;;;;;;4.75;67.86;99141.42;1704304;83;20148;-40
2021/03/22 16:01:03;;;;;;;;;;;;;;;4.74;68.29;99138.80;1697021;83;20203;-36
2021/03/22 16:03:34;;;;;;;;;;;;;;;4.72;68.47;99145.28;1678726;83;20207;-39
2021/03/22 16:06:02;;;;;;;;;;;;;;;4.67;68.27;99142.22;1695266;83;20180;-40
2021/03/22 16:08:30;;;;;;;;;;;;;;;4.62;68.27;99151.26;1694013;83;20241;-40
2021/03/22 16:10:58;;;;;;;;;;;;;;;4.60;68.38;99151.69;1670978;84;20455;-35
2021/03/22 16:13:28;;;;;;;;;;;;;;;4.60;68.67;99146.94;1672943;83;20171;-40
2021/03/22 16:15:56;;;;;;;;;;;;;;;4.59;68.70;99144.78;1671198;84;20175;-35
2021/03/22 16:18:24;;;;;;;;;;;;;;;4.59;69.01;99140.03;1667353;83;20159;-35
2021/03/22 16:20:52;;;;;;;;;;;;;;;4.60;69.12;99136.15;1707986;83;20471;-35
2021/03/22 16:23:21;;;;;;;;;;;;;;;4.62;68.89;99134.85;1726415;83;20191;-40
2021/03/22 16:25:49;;;;;;;;;;;;;;;4.60;68.85;99136.58;1710359;83;20451;-35
2021/03/22 16:28:17;;;;;;;;;;;;;;;4.54;68.77;99139.57;1702177;83;20189;-40
2021/03/22 16:30:46;;;;;;;;;;;;;;;4.53;68.69;99130.50;1701974;84;20172;-35
2021/03/22 16:33:20;;;;;;;;;;;;;;;4.48;69.20;99142.13;1698275;83;20164;-40
2021/03/22 16:35:50;;;;;;;;;;;;;;;4.43;69.81;99150.72;1726386;83;20203;-40
2021/03/22 16:38:19;;;;;;;;;;;;;;;4.38;69.43;99142.92;1706712;84;20197;-36
2021/03/22 16:40:52;;;;;;;;;;;;;;;4.33;69.33;99143.73;1690976;83;20187;-37
2021/03/22 16:43:21;;;;;;;;;;;;;;;4.30;68.98;99146.33;1678444;85;20198;-40
2021/03/22 16:45:52;;;;;;;;;;;;;;;4.24;68.36;99136.80;1706192;83;20187;-35
2021/03/22 16:48:20;;;;;;;;;;;;;;;4.17;68.31;99141.03;1731031;83;20455;-35
2021/03/22 16:50:48;;;;;;;;;;;;;;;4.13;68.09;99141.02;1701681;83;20144;-36
2021/03/22 16:53:16;;;;;;;;;;;;;;;4.07;67.92;99136.66;1678364;85;20434;-36
2021/03/22 16:55:44;;;;;;;;;;;;;;;4.02;67.84;99140.07;1693879;83;20188;-41
2021/03/22 16:58:13;;;;;;;;;;;;;;;3.98;67.72;99144.34;1686163;83;20195;-41
2021/03/22 17:00:41;;;;;;;;;;;;;;;3.97;67.77;99150.38;1691904;84;20149;-40
2021/03/22 17:03:09;;;;;;;;;;;;;;;3.92;67.96;99149.04;1696722;83;20431;-39
2021/03/22 17:05:39;;;;;;;;;;;;;;;3.90;68.12;99143.42;1672553;84;20171;-35
2021/03/22 17:08:07;;;;;;;;;;;;;;;3.88;68.22;99150.29;1689745;84;20168;-40
2021/03/22 17:10:36;;;;;;;;;;;;;;;3.83;68.43;99151.56;1710667;83;20355;-40
2021/03/22 17:13:04;;;;;;;;;;;;;;;3.79;68.50;99156.27;1716122;83;20255;-40
2021/03/22 17:15:32;;;;;;;;;;;;;;;3.74;68.68;99155.36;1718720;83;20462;-40
2021/03/22 17:18:00;;;;;;;;;;;;;;;3.71;69.00;99153.63;1701983;84;20455;-39
2021/03/22 17:20:29;;;;;;;;;;;;;;;3.67;69.25;99150.55;1711106;83;20145;-40
2021/03/22 17:22:57;;;;;;;;;;;;;;;3.65;69.52;99162.61;1706533;84;20436;-35
2021/03/22 17:25:27;;;;;;;;;;;;;;;3.63;69.70;99158.27;1709501;83;20558;-40
2021/03/22 17:27:56;;;;;;;;;;;;;;;3.62;69.86;99161.28;1702134;84;20208;-40
2021/03/22 17:30:25;;;;;;;;;;;;;;;3.62;69.94;99170.33;1688713;84;20212;-35
2021/03/22 17:32:53;;;;;;;;;;;;;;;3.62;70.02;99177.23;1702699;83;20149;-37
2021/03/22 17:35:23;;;;;;;;;;;;;;;3.60;70.26;99178.94;1695840;83;20151;-40
2021/03/22 17:37:52;;;;;;;;;;;;;;;3.58;70.11;99180.20;1678597;83;20127;-37
2021/03/22 17:40:22;;;;;;;;;;;;;;;3.58;69.87;99169.84;1679665;83;20427;-35
2021/03/22 17:42:52;;;;;;;;;;;;;;;3.59;69.64;99167.70;1678244;85;20171;-41
2021/03/22 17:45:20;;;;;;;;;;;;;;;3.59;69.61;99170.28;1686991;83;20156;-36
2021/03/22 17:47:47;;;;;;;;;;;;;;;3.59;69.63;99173.30;1700766;84;20181;-40
2021/03/22 17:50:17;;;;;;;;;;;;;;;3.58;69.65;99172.86;1722951;83;20475;-36
2021/03/22 17:52:45;;;;;;;;;;;;;;;3.56;69.71;99174.15;1726385;83;20172;-36
2021/03/22 17:55:13;;;;;;;;;;;;;;;3.53;69.65;99174.11;1707115;83;20578;-35
2021/03/22 17:57:41;;;;;;;;;;;;;;;3.53;70.08;99173.23;1727390;82;20134;-41
2021/03/22 18:00:10;;;;;;;;;;;;;;;3.48;70.44;99179.68;1709232;84;20137;-40
2021/03/22 18:02:37;;;;;;;;;;;;;;;3.45;70.66;99179.63;1724959;82;20186;-36
2021/03/22 18:05:06;;;;;;;;;;;;;;;3.41;70.97;99177.42;1727147;82;20130;-36
2021/03/22 18:07:34;;;;;;;;;;;;;;;3.42;71.13;99183.46;1696671;84;20190;-36
2021/03/22 18:10:03;;;;;;;;;;;;;;;3.39;71.23;99184.73;1692840;83;20176;-41
2021/03/22 18:12:31;;;;;;;;;;;;;;;3.38;71.45;99181.72;1709443;84;20145;-36
2021/03/22 18:15:00;;;;;;;;;;;;;;;3.41;71.66;99177.86;1747547;82;20631;-36
2021/03/22 18:17:29;;;;;;;;;;;;;;;3.46;71.49;99184.81;1739096;82;20187;-39
2021/03/22 18:19:58;;;;;;;;;;;;;;;3.52;71.55;99186.59;1733907;82;20157;-35
2021/03/22 18:22:25;;;;;;;;;;;;;;;3.58;71.25;99185.37;1725122;82;20166;-35
2021/03/22 18:24:53;;;;;;;;;;;;;;;3.60;71.20;99188.86;1673557;85;20160;-40
2021/03/22 18:27:20;;;;;;;;;;;;;;;3.60;71.29;99190.16;1709173;84;20216;-40
2021/03/22 18:29:48;;;;;;;;;;;;;;;3.60;71.30;99188.86;1715343;82;20200;-41
2021/03/22 18:32:15;;;;;;;;;;;;;;;3.60;71.13;99187.56;1702273;84;20505;-36
2021/03/22 18:34:44;;;;;;;;;;;;;;;3.59;70.97;99185.80;1679510;84;20179;-39
2021/03/22 18:37:11;;;;;;;;;;;;;;;3.58;70.65;99189.67;1697317;84;20204;-39
2021/03/22 18:39:38;;;;;;;;;;;;;;;3.55;70.44;99193.54;1686689;84;20454;-40
2021/03/22 18:42:08;;;;;;;;;;;;;;;3.51;70.36;99193.92;1727349;82;20405;-40
2021/03/22 18:44:35;;;;;;;;;;;;;;;3.47;70.35;99199.91;1692138;84;20135;-41
2021/03/22 18:47:04;;;;;;;;;;;;;;;3.40;70.32;99197.67;1724738;82;20543;-35
2021/03/22 18:49:32;;;;;;;;;;;;;;;3.34;70.55;99201.48;1666969;85;20180;-40
2021/03/22 18:51:59;;;;;;;;;;;;;;;3.29;70.80;99207.45;1692874;83;20404;-35
2021/03/22 18:54:27;;;;;;;;;;;;;;;3.22;70.86;99210.39;1676129;83;20262;-39
2021/03/22 18:56:54;;;;;;;;;;;;;;;3.15;71.02;99211.17;1683063;84;20201;-40
2021/03/22 18:59:24;;;;;;;;;;;;;;;3.08;71.20;99207.66;1679088;84;20236;-39
2021/03/22 19:01:52;;;;;;;;;;;;;;;3.01;71.35;99207.10;1666231;84;20459;-40
2021/03/22 19:04:20;;;;;;;;;;;;;;;2.96;71.46;99213.95;1704380;83;20144;-40
2021/03/22 19:06:48;;;;;;;;;;;;;;;2.89;71.70;99214.27;1707229;83;20181;-36
2021/03/22 19:09:16;;;;;;;;;;;;;;;2.84;71.78;99212.08;1692012;83;20238;-40
2021/03/22 19:11:45;;;;;;;;;;;;;;;2.79;71.93;99219.31;1652294;85;20147;-40
2021/03/22 19:14:13;;;;;;;;;;;;;;;2.74;72.08;99217.09;1674222;83;20199;-40
2021/03/22 19:16:41;;;;;;;;;;;;;;;2.70;72.22;99217.45;1667307;84;20213;-40
2021/03/22 19:19:09;;;;;;;;;;;;;;;2.66;72.28;99222.98;1723512;83;20167;-35
2021/03/22 19:21:37;;;;;;;;;;;;;;;2.64;72.38;99222.11;1688469;83;20446;-40
2021/03/22 19:24:05;;;;;;;;;;;;;;;2.62;72.43;99221.66;1678343;85;20486;-37
2021/03/22 19:26:33;;;;;;;;;;;;;;;2.59;72.59;99228.91;1676686;83;20615;-41
2021/03/22 19:29:00;;;;;;;;;;;;;;;2.57;72.84;99225.45;1697489;83;20164;-41
2021/03/22 19:31:32;;;;;;;;;;;;;;;2.53;73.15;99227.53;1711251;83;20618;-41
2021/03/22 19:34:05;;;;;;;;;;;;;;;2.50;73.49;99230.09;1682302;83;20159;-35
2021/03/22 19:36:30;;;;;;;;;;;;;;;2.46;73.75;99233.88;1669001;84;20245;-40
2021/03/22 19:38:59;;;;;;;;;;;;;;;2.43;73.98;99229.95;1697114;83;20147;-40
2021/03/22 19:41:27;;;;;;;;;;;;;;;2.40;74.18;99232.07;1707591;83;20419;-40
2021/03/22 19:43:55;;;;;;;;;;;;;;;2.36;74.39;99228.98;1701975;84;20180;-35
2021/03/22 19:46:23;;;;;;;;;;;;;;;2.33;74.68;99226.38;1704190;83;20161;-36
2021/03/22 19:48:53;;;;;;;;;;;;;;;2.32;74.88;99240.09;1712313;83;20144;-40
2021/03/22 19:51:23;;;;;;;;;;;;;;;2.31;75.01;99232.78;1712688;83;20515;-35